createdAt,value
2022-08-14T00:02:17.777Z,18.00
2022-08-14T00:04:46.256Z,17.70
2022-08-14T00:07:15.112Z,17.80
2022-08-14T00:10:01.480Z,17.80
2022-08-14T00:12:39.482Z,17.80
2022-08-14T00:15:16.587Z,17.80
2022-08-14T00:17:47.890Z,17.70
2022-08-14T00:20:30.474Z,17.70
2022-08-14T00:23:11.939Z,17.70
2022-08-14T00:25:42.818Z,17.70
2022-08-14T00:28:18.315Z,17.60
2022-08-14T00:30:47.561Z,17.60
2022-08-14T00:33:16.884Z,17.60
2022-08-14T00:36:35.888Z,17.60
2022-08-14T00:38:35.706Z,17.10
2022-08-14T00:41:07.164Z,17.20
2022-08-14T00:43:41.708Z,17.30
2022-08-14T00:46:32.325Z,17.20
2022-08-14T00:49:02.179Z,17.20
2022-08-14T00:51:36.761Z,17.10
2022-08-14T00:54:10.997Z,17.30
2022-08-14T00:56:46.835Z,15.90
2022-08-14T00:59:16.691Z,17.30
2022-08-14T01:01:48.733Z,17.20
2022-08-14T01:04:38.383Z,17.30
2022-08-14T01:07:14.281Z,17.20
2022-08-14T01:09:43.786Z,15.40
2022-08-14T01:12:13.514Z,17.20
2022-08-14T01:15:00.134Z,16.50
2022-08-14T01:17:50.036Z,17.00
2022-08-14T01:20:39.344Z,17.00
2022-08-14T01:23:16.379Z,16.90
2022-08-14T01:25:51.514Z,17.00
2022-08-14T01:28:46.803Z,16.90
2022-08-14T01:31:15.655Z,16.80
2022-08-14T01:35:15.626Z,16.60
2022-08-14T01:36:38.972Z,16.80
2022-08-14T01:39:12.979Z,16.80
2022-08-14T01:41:44.591Z,16.80
2022-08-14T01:44:32.596Z,16.80
2022-08-14T01:47:21.695Z,16.80
2022-08-14T01:49:59.600Z,16.80
2022-08-14T01:52:58.953Z,16.10
2022-08-14T01:55:32.605Z,16.80
2022-08-14T01:58:19.689Z,16.80
2022-08-14T02:00:54.693Z,16.70
2022-08-14T02:03:30.283Z,16.80
2022-08-14T02:06:03.946Z,16.60
2022-08-14T02:08:53.311Z,15.70
2022-08-14T02:11:27.004Z,16.70
2022-08-14T02:14:07.235Z,16.60
2022-08-14T02:16:39.326Z,16.70
2022-08-14T02:19:11.304Z,15.30
2022-08-14T02:21:43.779Z,16.50
2022-08-14T02:24:39.522Z,16.50
2022-08-14T02:28:25.152Z,16.40
2022-08-14T02:30:01.206Z,16.50
2022-08-14T02:32:36.728Z,16.40
2022-08-14T02:35:13.861Z,16.40
2022-08-14T02:37:47.984Z,16.50
2022-08-14T02:40:19.108Z,16.20
2022-08-14T02:42:54.285Z,16.20
2022-08-14T02:45:23.860Z,16.30
2022-08-14T02:47:57.301Z,15.00
2022-08-14T02:50:27.272Z,16.30
2022-08-14T02:53:03.029Z,16.00
2022-08-14T02:55:33.319Z,16.30
2022-08-14T02:58:05.957Z,16.30
2022-08-14T03:00:39.767Z,16.30
2022-08-14T03:03:09.234Z,16.30
2022-08-14T03:05:41.858Z,16.30
2022-08-14T03:08:18.694Z,16.20
2022-08-14T03:10:50.170Z,16.20
2022-08-14T03:13:22.006Z,16.20
2022-08-14T03:15:55.257Z,16.20
2022-08-14T03:18:31.339Z,16.10
2022-08-14T03:21:07.834Z,15.20
2022-08-14T03:23:38.484Z,16.00
2022-08-14T03:26:12.951Z,16.10
2022-08-14T03:28:51.373Z,16.10
2022-08-14T03:31:26.024Z,16.20
2022-08-14T03:34:00.287Z,16.20
2022-08-14T03:37:39.445Z,16.10
2022-08-14T03:39:23.008Z,16.00
2022-08-14T03:41:59.978Z,15.90
2022-08-14T03:45:25.914Z,15.90
2022-08-14T03:47:46.014Z,15.80
2022-08-14T03:50:15.220Z,15.80
2022-08-14T03:52:57.576Z,15.90
2022-08-14T03:55:30.224Z,15.90
2022-08-14T03:58:00.536Z,15.90
2022-08-14T04:00:44.274Z,15.90
2022-08-14T04:03:23.528Z,15.20
2022-08-14T04:05:53.552Z,15.80
2022-08-14T04:08:30.495Z,15.80
2022-08-14T04:11:02.704Z,15.80
2022-08-14T04:13:34.271Z,15.80
2022-08-14T04:16:10.175Z,15.80
2022-08-14T04:18:43.432Z,15.70
2022-08-14T04:21:13.358Z,15.40
2022-08-14T04:23:44.690Z,15.80
2022-08-14T04:26:27.205Z,15.90
2022-08-14T04:29:15.452Z,15.80
2022-08-14T04:33:02.841Z,15.80
2022-08-14T04:34:40.024Z,15.50
2022-08-14T04:37:28.350Z,15.90
2022-08-14T04:40:15.362Z,15.80
2022-08-14T04:43:01.403Z,15.80
2022-08-14T04:45:40.985Z,15.50
2022-08-14T04:48:39.365Z,15.70
2022-08-14T04:51:05.544Z,15.80
2022-08-14T04:53:41.126Z,15.90
2022-08-14T04:56:31.274Z,15.90
2022-08-14T04:59:10.630Z,15.50
2022-08-14T05:01:49.145Z,15.80
2022-08-14T05:04:22.142Z,16.00
2022-08-14T05:06:54.497Z,16.00
2022-08-14T05:09:29.017Z,16.30
2022-08-14T05:13:02.847Z,16.30
2022-08-14T05:14:54.689Z,16.50
2022-08-14T05:17:34.779Z,16.50
2022-08-14T05:21:56.247Z,16.40
2022-08-14T05:23:03.641Z,16.70
2022-08-14T05:25:34.290Z,16.90
2022-08-14T05:28:14.101Z,17.00
2022-08-14T05:30:46.350Z,17.00
2022-08-14T05:33:16.421Z,16.40
2022-08-14T05:35:47.926Z,17.10
2022-08-14T05:38:22.246Z,17.20
2022-08-14T05:40:59.768Z,16.90
2022-08-14T05:43:41.270Z,17.20
2022-08-14T05:46:15.278Z,15.80
2022-08-14T05:48:45.365Z,17.50
2022-08-14T05:51:15.675Z,17.70
2022-08-14T05:54:00.337Z,17.90
2022-08-14T05:56:33.097Z,17.90
2022-08-14T05:59:05.972Z,18.00
2022-08-14T06:01:36.243Z,18.20
2022-08-14T06:04:05.567Z,18.50
2022-08-14T06:06:38.401Z,18.50
2022-08-14T06:09:10.073Z,18.70
2022-08-14T06:11:38.946Z,19.10
2022-08-14T06:14:20.973Z,19.20
2022-08-14T06:16:53.154Z,19.30
2022-08-14T06:19:23.265Z,19.60
2022-08-14T06:21:59.302Z,19.80
2022-08-14T06:24:30.558Z,19.90
2022-08-14T06:27:05.809Z,20.00
2022-08-14T06:29:36.344Z,20.40
2022-08-14T06:32:38.305Z,20.60
2022-08-14T06:35:02.341Z,20.90
2022-08-14T06:37:43.861Z,21.00
2022-08-14T06:40:25.462Z,20.80
2022-08-14T06:43:00.506Z,21.50
2022-08-14T06:45:32.772Z,21.90
2022-08-14T06:48:02.717Z,22.20
2022-08-14T06:50:34.588Z,22.30
2022-08-14T06:53:04.446Z,22.60
2022-08-14T06:55:37.022Z,22.90
2022-08-14T06:58:24.815Z,23.20
2022-08-14T07:01:15.679Z,23.30
2022-08-14T07:04:01.575Z,23.90
2022-08-14T07:06:45.722Z,24.10
2022-08-14T07:09:23.049Z,24.50
2022-08-14T07:11:52.649Z,24.80
2022-08-14T07:14:22.333Z,24.30
2022-08-14T07:16:50.812Z,24.60
2022-08-14T07:19:20.800Z,25.70
2022-08-14T07:21:50.222Z,26.00
2022-08-14T07:24:21.497Z,25.90
2022-08-14T07:26:50.670Z,26.00
2022-08-14T07:29:24.071Z,26.10
2022-08-14T07:31:54.588Z,26.50
2022-08-14T07:34:36.487Z,26.90
2022-08-14T07:37:09.795Z,26.90
2022-08-14T07:39:40.021Z,27.00
2022-08-14T07:42:12.973Z,27.10
2022-08-14T07:44:46.193Z,27.20
2022-08-14T07:47:17.538Z,25.90
2022-08-14T07:50:01.858Z,27.50
2022-08-14T07:52:32.135Z,27.60
2022-08-14T07:55:02.348Z,27.90
2022-08-14T07:57:31.342Z,28.30
2022-08-14T07:59:59.801Z,27.90
2022-08-14T08:02:36.010Z,28.50
2022-08-14T08:05:11.377Z,28.70
2022-08-14T08:07:42.358Z,28.70
2022-08-14T08:11:01.375Z,28.80
2022-08-14T08:13:29.530Z,28.70
2022-08-14T08:15:59.311Z,28.70
2022-08-14T08:18:29.808Z,28.70
2022-08-14T08:21:00.492Z,28.50
2022-08-14T08:23:40.601Z,29.10
2022-08-14T08:26:21.017Z,28.80
2022-08-14T08:28:58.179Z,28.70
2022-08-14T08:31:32.703Z,29.50
2022-08-14T08:34:07.332Z,29.30
2022-08-14T08:36:46.667Z,29.40
2022-08-14T08:39:22.123Z,29.40
2022-08-14T08:41:53.401Z,29.30
2022-08-14T08:44:32.084Z,29.70
2022-08-14T08:47:06.180Z,28.80
2022-08-14T08:49:59.040Z,29.70
2022-08-14T08:52:31.250Z,29.80
2022-08-14T08:55:05.014Z,29.60
2022-08-14T08:57:38.119Z,29.70
2022-08-14T09:00:24.992Z,30.00
2022-08-14T09:03:00.271Z,30.20
2022-08-14T09:05:28.855Z,30.60
2022-08-14T09:08:30.600Z,29.30
2022-08-14T09:11:01.260Z,30.60
2022-08-14T09:13:33.149Z,31.30
2022-08-14T09:16:18.842Z,31.30
2022-08-14T09:18:48.887Z,31.20
2022-08-14T09:21:18.413Z,30.50
2022-08-14T09:24:26.980Z,30.00
2022-08-14T09:26:38.417Z,30.70
2022-08-14T09:29:10.727Z,30.50
2022-08-14T09:31:52.841Z,31.40
2022-08-14T09:34:38.957Z,31.70
2022-08-14T09:37:39.285Z,31.60
2022-08-14T09:40:24.654Z,32.30
2022-08-14T09:43:13.105Z,32.30
2022-08-14T09:45:53.485Z,32.70
2022-08-14T09:48:27.989Z,32.60
2022-08-14T09:54:13.033Z,33.10
2022-08-14T09:56:43.737Z,33.20
2022-08-14T09:59:16.171Z,33.30
2022-08-14T10:01:53.028Z,33.20
2022-08-14T10:04:35.738Z,33.00
2022-08-14T10:07:08.422Z,32.50
2022-08-14T10:09:59.478Z,32.40
2022-08-14T10:12:43.815Z,32.20
2022-08-14T10:15:20.698Z,32.30
2022-08-14T10:17:53.398Z,32.40
2022-08-14T10:20:39.323Z,32.30
2022-08-14T10:23:19.654Z,31.50
2022-08-14T10:25:51.265Z,32.30
2022-08-14T10:29:03.865Z,33.00
2022-08-14T10:31:25.654Z,33.10
2022-08-14T10:34:12.982Z,33.10
2022-08-14T10:36:50.271Z,33.00
2022-08-14T10:39:31.468Z,33.10
2022-08-14T10:42:16.587Z,33.30
2022-08-14T10:44:52.603Z,32.90
2022-08-14T10:47:40.203Z,32.50
2022-08-14T10:50:12.214Z,32.40
2022-08-14T10:52:45.134Z,32.80
2022-08-14T10:55:19.325Z,32.60
2022-08-14T10:57:52.554Z,33.10
2022-08-14T11:00:30.008Z,33.00
2022-08-14T11:03:09.834Z,33.10
2022-08-14T11:05:44.544Z,33.40
2022-08-14T11:08:16.950Z,33.80
2022-08-14T11:10:49.159Z,34.10
2022-08-14T11:13:24.419Z,33.80
2022-08-14T11:15:56.132Z,34.70
2022-08-14T11:18:32.335Z,34.80
2022-08-14T11:21:08.221Z,34.90
2022-08-14T11:23:43.958Z,34.90
2022-08-14T11:26:16.471Z,34.60
2022-08-14T11:28:49.765Z,34.50
2022-08-14T11:31:25.961Z,34.50
2022-08-14T11:34:04.183Z,34.80
2022-08-14T11:37:02.941Z,35.40
2022-08-14T11:39:34.588Z,35.50
2022-08-14T11:42:55.313Z,35.40
2022-08-14T11:45:00.884Z,35.70
2022-08-14T11:47:35.119Z,35.60
2022-08-14T11:50:33.786Z,35.80
2022-08-14T11:53:09.020Z,35.10
2022-08-14T11:55:40.104Z,35.40
2022-08-14T11:58:12.206Z,35.50
2022-08-14T12:00:58.699Z,35.70
2022-08-14T12:03:51.217Z,35.10
2022-08-14T12:06:28.477Z,35.60
2022-08-14T12:09:14.922Z,36.90
2022-08-14T12:11:47.066Z,37.20
2022-08-14T12:14:34.751Z,37.70
2022-08-14T12:17:12.277Z,37.60
2022-08-14T12:19:54.089Z,37.70
2022-08-14T12:22:37.122Z,38.40
2022-08-14T12:25:11.635Z,37.90
2022-08-14T12:27:51.775Z,38.40
2022-08-14T12:30:43.145Z,38.50
2022-08-14T12:33:31.067Z,38.60
2022-08-14T12:36:06.018Z,38.90
2022-08-14T12:38:38.710Z,38.50
2022-08-14T12:41:20.553Z,38.50
2022-08-14T12:43:53.677Z,38.30
2022-08-14T12:46:28.662Z,38.70
2022-08-14T12:49:02.375Z,39.10
2022-08-14T12:51:31.519Z,39.50
2022-08-14T12:54:01.363Z,39.10
2022-08-14T12:56:34.159Z,38.50
2022-08-14T12:59:04.675Z,38.50
2022-08-14T13:01:59.862Z,38.60
2022-08-14T13:04:25.167Z,38.40
2022-08-14T13:06:53.899Z,38.40
2022-08-14T13:09:36.721Z,38.40
2022-08-14T13:12:32.043Z,38.90
2022-08-14T13:15:00.269Z,39.00
2022-08-14T13:17:38.058Z,39.30
2022-08-14T13:20:10.686Z,39.60
2022-08-14T13:22:56.283Z,39.20
2022-08-14T13:25:27.736Z,38.90
2022-08-14T13:28:00.093Z,38.90
2022-08-14T13:30:29.302Z,39.70
2022-08-14T13:33:00.199Z,39.70
2022-08-14T13:35:29.878Z,40.20
2022-08-14T13:37:58.582Z,40.50
2022-08-14T13:40:29.916Z,40.90
2022-08-14T13:43:00.081Z,41.20
2022-08-14T13:45:33.886Z,41.60
2022-08-14T13:48:32.154Z,42.00
2022-08-14T13:51:04.882Z,42.20
2022-08-14T13:53:52.637Z,42.40
2022-08-14T13:56:37.502Z,42.60
2022-08-14T13:59:08.652Z,39.70
2022-08-14T14:01:43.361Z,41.20
2022-08-14T14:04:18.954Z,41.70
2022-08-14T14:06:51.329Z,41.80
2022-08-14T14:09:37.649Z,42.30
2022-08-14T14:12:38.022Z,42.50
2022-08-14T14:15:11.731Z,43.00
2022-08-14T14:17:44.160Z,43.00
2022-08-14T14:20:35.720Z,43.00
2022-08-14T14:23:11.549Z,41.80
2022-08-14T14:25:51.310Z,43.50
2022-08-14T14:28:33.468Z,43.40
2022-08-14T14:31:07.006Z,42.40
2022-08-14T14:33:47.723Z,42.80
2022-08-14T14:36:22.009Z,43.10
2022-08-14T14:38:56.012Z,43.60
2022-08-14T14:41:26.337Z,43.20
2022-08-14T14:43:57.649Z,43.20
2022-08-14T14:46:36.891Z,43.00
2022-08-14T14:49:13.757Z,42.10
2022-08-14T14:51:46.841Z,42.30
2022-08-14T14:54:30.278Z,42.60
2022-08-14T14:57:02.155Z,43.00
2022-08-14T14:59:33.450Z,42.80
2022-08-14T15:02:09.285Z,42.30
2022-08-14T15:04:43.891Z,42.90
2022-08-14T15:07:13.162Z,42.70
2022-08-14T15:09:45.451Z,41.90
2022-08-14T15:12:34.448Z,41.80
2022-08-14T15:15:08.517Z,41.70
2022-08-14T15:17:41.074Z,41.70
2022-08-14T15:20:16.998Z,41.90
2022-08-14T15:22:51.551Z,41.80
2022-08-14T15:25:20.406Z,41.80
2022-08-14T15:27:54.740Z,40.20
2022-08-14T15:30:32.067Z,40.30
2022-08-14T15:33:02.445Z,39.30
2022-08-14T15:35:34.176Z,38.60
2022-08-14T15:38:08.727Z,38.50
2022-08-14T15:40:41.304Z,37.80
2022-08-14T15:43:12.989Z,38.10
2022-08-14T15:45:42.715Z,38.30
2022-08-14T15:48:22.752Z,38.20
2022-08-14T15:50:51.921Z,38.40
2022-08-14T15:53:22.463Z,38.60
2022-08-14T15:55:52.967Z,38.60
2022-08-14T15:58:22.090Z,38.30
2022-08-14T16:01:07.577Z,38.40
2022-08-14T16:03:40.873Z,38.30
2022-08-14T16:06:15.601Z,37.90
2022-08-14T16:08:52.280Z,37.60
2022-08-14T16:11:28.844Z,37.90
2022-08-14T16:14:01.825Z,37.70
2022-08-14T16:16:47.322Z,37.10
2022-08-14T16:19:23.594Z,36.20
2022-08-14T16:22:02.346Z,36.30
2022-08-14T16:25:02.503Z,36.00
2022-08-14T16:27:39.395Z,35.70
2022-08-14T16:30:25.140Z,35.40
2022-08-14T16:32:59.108Z,35.50
2022-08-14T16:35:42.899Z,35.60
2022-08-14T16:38:46.156Z,35.80
2022-08-14T16:41:22.833Z,35.80
2022-08-14T16:44:01.357Z,35.40
2022-08-14T16:46:34.706Z,35.20
2022-08-14T16:49:07.465Z,34.90
2022-08-14T16:51:40.706Z,34.60
2022-08-14T16:54:34.053Z,34.40
2022-08-14T16:57:16.307Z,34.80
2022-08-14T16:59:52.825Z,34.90
2022-08-14T17:02:38.996Z,34.70
2022-08-14T17:05:22.481Z,33.90
2022-08-14T17:08:31.880Z,33.60
2022-08-14T17:11:10.974Z,33.10
2022-08-14T17:13:59.168Z,32.90
2022-08-14T17:16:37.281Z,31.90
2022-08-14T17:19:13.637Z,32.00
2022-08-14T17:21:46.686Z,31.60
2022-08-14T17:24:56.044Z,30.60
2022-08-14T17:27:10.978Z,31.10
2022-08-14T17:29:56.239Z,30.70
2022-08-14T17:32:55.620Z,30.80
2022-08-14T17:35:57.505Z,30.60
2022-08-14T17:38:39.093Z,30.40
2022-08-14T17:41:32.651Z,30.10
2022-08-14T17:44:34.171Z,29.90
2022-08-14T17:47:18.274Z,29.10
2022-08-14T17:49:53.693Z,29.60
2022-08-14T17:52:34.973Z,29.50
2022-08-14T17:56:01.916Z,28.90
2022-08-14T17:58:20.441Z,28.90
2022-08-14T18:00:57.380Z,28.80
2022-08-14T18:03:50.975Z,28.50
2022-08-14T18:06:40.199Z,28.20
2022-08-14T18:09:25.324Z,28.00
2022-08-14T18:11:57.086Z,28.00
2022-08-14T18:14:32.279Z,27.40
2022-08-14T18:17:03.399Z,27.20
2022-08-14T18:19:36.667Z,27.60
2022-08-14T18:22:30.893Z,27.40
2022-08-14T18:25:02.324Z,27.30
2022-08-14T18:27:46.066Z,27.20
2022-08-14T18:30:33.404Z,27.00
2022-08-14T18:33:22.123Z,26.80
2022-08-14T18:35:59.892Z,25.70
2022-08-14T18:38:55.229Z,26.30
2022-08-14T18:41:36.208Z,26.20
2022-08-14T18:44:10.539Z,26.10
2022-08-14T18:47:23.338Z,26.00
2022-08-14T18:50:26.101Z,25.80
2022-08-14T18:53:07.386Z,25.10
2022-08-14T18:55:53.920Z,25.40
2022-08-14T18:58:34.150Z,25.60
2022-08-14T19:01:06.443Z,25.40
2022-08-14T19:04:02.265Z,25.30
2022-08-14T19:06:56.148Z,25.20
2022-08-14T19:09:58.855Z,24.80
2022-08-14T19:13:12.259Z,24.70
2022-08-14T19:15:44.515Z,24.70
2022-08-14T19:18:28.713Z,24.00
2022-08-14T19:21:02.098Z,24.50
2022-08-14T19:23:44.251Z,24.30
2022-08-14T19:26:36.040Z,24.30
2022-08-14T19:29:36.243Z,24.10
2022-08-14T19:32:39.691Z,24.00
2022-08-14T19:35:49.865Z,23.90
2022-08-14T19:38:57.533Z,23.80
2022-08-14T19:41:34.149Z,23.70
2022-08-14T19:44:15.464Z,23.70
2022-08-14T19:47:01.767Z,23.70
2022-08-14T19:50:24.435Z,23.50
2022-08-14T19:52:30.301Z,23.50
2022-08-14T19:55:19.196Z,22.70
2022-08-14T19:57:58.360Z,23.40
2022-08-14T20:00:30.138Z,23.30
2022-08-14T20:03:11.833Z,23.30
2022-08-14T20:05:46.034Z,21.80
2022-08-14T20:09:06.424Z,22.40
2022-08-14T20:12:02.127Z,22.10
2022-08-14T20:14:20.642Z,22.70
2022-08-14T20:17:05.599Z,22.80
2022-08-14T20:19:38.070Z,22.50
2022-08-14T20:22:36.537Z,22.70
2022-08-14T20:25:15.257Z,22.20
2022-08-14T20:27:49.772Z,22.60
2022-08-14T20:30:34.944Z,22.70
2022-08-14T20:33:07.852Z,22.40
2022-08-14T20:35:44.256Z,21.90
2022-08-14T20:38:31.106Z,22.50
2022-08-14T20:41:05.678Z,22.50
2022-08-14T20:43:56.338Z,22.60
2022-08-14T20:46:31.166Z,22.60
2022-08-14T20:49:02.437Z,22.50
2022-08-14T20:51:38.893Z,22.40
2022-08-14T20:54:33.486Z,22.40
2022-08-14T20:57:09.825Z,22.40
2022-08-14T20:59:44.209Z,22.50
2022-08-14T21:02:46.573Z,22.50
2022-08-14T21:05:33.900Z,22.60
2022-08-14T21:08:08.171Z,22.50
2022-08-14T21:10:44.264Z,22.50
2022-08-14T21:14:08.773Z,22.50
2022-08-14T21:16:34.256Z,22.50
2022-08-14T21:19:01.881Z,22.50
2022-08-14T21:21:41.232Z,22.40
2022-08-14T21:24:39.956Z,22.30
2022-08-14T21:27:12.916Z,22.40
2022-08-14T21:29:53.945Z,22.40
2022-08-14T21:32:35.176Z,22.50
2022-08-14T21:35:10.465Z,22.40
2022-08-14T21:37:47.478Z,22.40
2022-08-14T21:40:42.011Z,22.50
2022-08-14T21:43:17.799Z,22.40
2022-08-14T21:45:53.853Z,22.50
2022-08-14T21:48:29.741Z,22.00
2022-08-14T21:51:53.757Z,22.60
2022-08-14T21:54:00.278Z,22.50
2022-08-14T21:56:38.169Z,22.50
2022-08-14T21:59:17.933Z,22.50
2022-08-14T22:02:00.400Z,22.50
2022-08-14T22:04:40.686Z,22.40
2022-08-14T22:07:17.124Z,22.50
2022-08-14T22:09:55.418Z,21.80
2022-08-14T22:12:47.244Z,22.50
2022-08-14T22:15:18.862Z,21.70
2022-08-14T22:17:52.334Z,20.60
2022-08-14T22:20:28.032Z,22.20
2022-08-14T22:22:58.629Z,22.30
2022-08-14T22:25:33.494Z,22.20
2022-08-14T22:28:05.791Z,21.80
2022-08-14T22:30:36.913Z,22.00
2022-08-14T22:33:06.693Z,22.10
2022-08-14T22:35:38.760Z,22.10
2022-08-14T22:38:35.895Z,21.60
2022-08-14T22:41:20.482Z,21.80
2022-08-14T22:43:45.542Z,21.90
2022-08-14T22:46:20.254Z,21.80
2022-08-14T22:48:51.059Z,21.80
2022-08-14T22:51:23.888Z,21.90
2022-08-14T22:53:56.309Z,22.00
2022-08-14T22:56:30.441Z,22.00
2022-08-14T22:59:03.083Z,22.10
2022-08-14T23:01:56.122Z,22.10
2022-08-14T23:04:34.907Z,21.70
2022-08-14T23:07:14.389Z,22.00
2022-08-14T23:09:56.312Z,22.10
2022-08-14T23:12:29.651Z,22.20
2022-08-14T23:15:00.426Z,22.00
2022-08-14T23:17:39.133Z,22.10
2022-08-14T23:20:19.223Z,22.10
2022-08-14T23:22:52.480Z,22.10
2022-08-14T23:25:57.483Z,22.10
2022-08-14T23:28:33.776Z,22.20
2022-08-14T23:31:14.775Z,22.20
2022-08-14T23:34:02.974Z,22.10
2022-08-14T23:36:54.254Z,21.90
2022-08-14T23:39:29.747Z,22.00
2022-08-14T23:42:04.214Z,22.00
2022-08-14T23:44:36.963Z,22.00
2022-08-14T23:47:12.007Z,22.00
2022-08-14T23:50:00.567Z,20.30
2022-08-14T23:52:57.458Z,22.00
2022-08-14T23:55:31.232Z,22.00
2022-08-14T23:58:02.033Z,21.20
